Time;durP1;ratioP1;P1;durP2;ratioP2;P2;SDS_P1;SDS_P2;PMS_P1;PMS_P2;Temp;Humidity;BMP_temperature;BMP_pressure;BME280_temperature;BME280_humidity;BME280_pressure;Samples;Min_cycle;Max_cycle;Signal;HPM_P1;HPM_P2
2021/06/27 00:02:14;;;;;;;4.10;3.80;;;;;;;18.31;71.47;99527.69;5037151;28;20241;-83
2021/06/27 00:04:41;;;;;;;4.73;4.33;;;;;;;18.32;71.67;99536.66;5055281;28;20571;-81
2021/06/27 00:07:08;;;;;;;4.50;4.10;;;;;;;18.35;71.69;99538.81;5054074;28;20249;-80
2021/06/27 00:09:35;;;;;;;4.37;4.00;;;;;;;18.30;71.52;99528.78;5053338;28;20229;-82
2021/06/27 00:12:01;;;;;;;4.10;3.80;;;;;;;18.28;71.73;99530.13;5021042;28;20312;-80
2021/06/27 00:14:28;;;;;;;4.50;4.20;;;;;;;18.27;71.78;99532.03;5054083;28;20244;-86
2021/06/27 00:16:55;;;;;;;4.10;3.77;;;;;;;18.23;71.77;99522.00;5037497;28;20225;-88
2021/06/27 00:19:22;;;;;;;4.20;3.87;;;;;;;18.21;71.90;99518.75;5054101;28;20229;-79
2021/06/27 00:21:49;;;;;;;4.27;3.90;;;;;;;18.16;72.13;99524.97;5037495;28;20537;-86
2021/06/27 00:24:18;;;;;;;4.47;4.07;;;;;;;18.09;72.11;99523.63;5053778;28;20244;-84
2021/06/27 00:26:44;;;;;;;4.30;4.00;;;;;;;18.12;72.20;99536.63;5054041;28;20228;-87
2021/06/27 00:29:11;;;;;;;4.43;4.13;;;;;;;18.06;72.27;99535.03;5021330;28;20254;-84
2021/06/27 00:31:39;;;;;;;4.23;3.93;;;;;;;18.06;72.53;99530.41;5037330;28;20237;-88
2021/06/27 00:34:06;;;;;;;4.40;4.10;;;;;;;18.02;72.72;99529.31;5053741;28;20232;-85
2021/06/27 00:36:33;;;;;;;5.00;4.60;;;;;;;17.99;72.88;99527.16;5021101;28;20649;-83
2021/06/27 00:38:59;;;;;;;4.40;4.10;;;;;;;17.99;73.09;99532.56;5037225;28;20260;-84
2021/06/27 00:41:26;;;;;;;4.83;4.43;;;;;;;17.95;73.45;99520.66;5037596;28;20701;-87
2021/06/27 00:43:53;;;;;;;4.23;3.90;;;;;;;17.93;73.21;99523.63;5053780;28;20230;-88
2021/06/27 00:46:20;;;;;;;4.57;4.20;;;;;;;17.92;72.93;99527.41;5053646;28;20320;-84
2021/06/27 00:48:46;;;;;;;4.20;3.90;;;;;;;17.93;73.27;99536.34;5037419;28;20240;-86
2021/06/27 00:51:16;;;;;;;4.40;4.10;;;;;;;17.83;73.75;99539.03;5053686;28;20653;-84
2021/06/27 00:53:43;;;;;;;4.40;4.10;;;;;;;17.80;73.78;99532.28;5037621;28;20288;-83
2021/06/27 00:56:10;;;;;;;4.67;4.10;;;;;;;17.80;73.82;99539.59;5020597;28;20235;-90
2021/06/27 00:58:37;;;;;;;4.13;3.83;;;;;;;17.75;73.88;99526.84;5020834;28;20705;-86
2021/06/27 01:01:06;;;;;;;4.53;4.13;;;;;;;17.70;73.83;99523.31;5053604;28;20279;-85
2021/06/27 01:03:33;;;;;;;4.40;4.10;;;;;;;17.71;73.73;99531.19;5024214;28;20229;-81
2021/06/27 01:06:00;;;;;;;4.40;4.03;;;;;;;17.67;74.22;99523.88;5040943;28;20240;-83
2021/06/27 01:08:27;;;;;;;4.30;4.00;;;;;;;17.60;74.57;99508.66;5040532;28;20229;-85
2021/06/27 01:10:54;;;;;;;4.30;4.00;;;;;;;17.57;74.67;99506.47;5057407;28;20312;-89
2021/06/27 01:13:22;;;;;;;4.60;4.20;;;;;;;17.52;74.77;99497.53;5057211;28;20225;-82
2021/06/27 01:15:50;;;;;;;4.23;3.93;;;;;;;17.54;74.82;99496.16;5057264;28;20279;-85
2021/06/27 01:18:17;;;;;;;4.53;4.17;;;;;;;17.47;74.91;99492.09;5040245;28;20225;-87
2021/06/27 01:20:44;;;;;;;4.30;4.00;;;;;;;17.47;75.24;99498.31;5057204;28;20241;-89
2021/06/27 01:23:17;;;;;;;4.40;4.00;;;;;;;17.42;75.04;99502.91;5056999;28;20261;-89
2021/06/27 01:25:48;;;;;;;4.60;4.30;;;;;;;17.39;75.58;99498.03;5040626;28;20234;-87
2021/06/27 01:28:16;;;;;;;4.37;4.07;;;;;;;17.36;75.40;99507.50;5040158;28;20231;-81
2021/06/27 01:30:43;;;;;;;4.80;4.40;;;;;;;17.39;75.42;99504.28;5040425;28;20233;-89
2021/06/27 01:33:17;;;;;;;4.13;3.83;;;;;;;17.44;75.13;99511.59;5040440;28;20233;-88
2021/06/27 01:35:45;;;;;;;4.43;4.13;;;;;;;17.34;75.06;99498.03;5057253;28;20272;-91
2021/06/27 01:38:15;;;;;;;4.37;3.90;;;;;;;17.33;75.11;99499.09;5040497;28;20225;-88
2021/06/27 01:40:42;;;;;;;4.53;4.23;;;;;;;17.37;75.05;99506.41;5056927;28;20533;-87
2021/06/27 01:43:15;;;;;;;4.37;4.07;;;;;;;17.40;75.02;99502.38;5039910;28;20330;-80
2021/06/27 01:45:50;;;;;;;4.33;3.93;;;;;;;17.34;74.88;99501.56;5040399;28;20236;-86
2021/06/27 01:48:17;;;;;;;4.37;4.00;;;;;;;17.40;74.96;99508.63;5056391;28;20241;-86
2021/06/27 01:50:47;;;;;;;4.60;4.30;;;;;;;17.41;74.96;99510.22;5040102;28;20234;-86
2021/06/27 01:53:15;;;;;;;4.53;4.20;;;;;;;17.41;74.91;99506.69;5039835;28;20249;-86
2021/06/27 01:55:43;;;;;;;4.50;4.10;;;;;;;17.36;74.93;99485.00;5056519;28;20238;-84
2021/06/27 01:58:10;;;;;;;4.40;4.10;;;;;;;17.39;74.76;99493.44;5056056;28;20217;-83
2021/06/27 02:00:38;;;;;;;4.60;4.27;;;;;;;17.38;74.84;99489.09;5039770;28;20248;-87
2021/06/27 02:03:06;;;;;;;4.60;4.20;;;;;;;17.30;75.08;99481.50;5056549;28;20569;-83
2021/06/27 02:05:33;;;;;;;5.07;4.67;;;;;;;17.28;75.07;99483.66;5023488;28;20633;-85
2021/06/27 02:08:00;;;;;;;4.40;4.10;;;;;;;17.22;75.06;99483.91;5056413;28;20222;-88
2021/06/27 02:10:28;;;;;;;4.67;4.20;;;;;;;17.28;75.13;99489.06;5023267;28;20315;-81
2021/06/27 02:12:57;;;;;;;4.90;4.40;;;;;;;17.23;75.11;99494.47;5057037;28;20648;-86
2021/06/27 02:15:24;;;;;;;4.63;4.30;;;;;;;17.18;75.18;99492.56;5022947;28;20540;-87
2021/06/27 02:18:09;;;;;;;4.80;4.40;;;;;;;17.23;75.11;99499.06;5039686;28;20667;-92
2021/06/27 02:20:37;;;;;;;4.70;4.30;;;;;;;17.18;75.19;99486.31;5055669;28;20233;-84
2021/06/27 02:23:04;;;;;;;4.40;4.10;;;;;;;17.08;75.06;99468.16;5056278;28;20596;-89
2021/06/27 02:25:31;;;;;;;5.27;4.50;;;;;;;17.18;75.12;99480.91;5056074;28;20237;-84
2021/06/27 02:27:58;;;;;;;4.77;4.27;;;;;;;17.21;75.08;99479.59;5057274;28;20225;-90
2021/06/27 02:30:25;;;;;;;4.77;4.37;;;;;;;17.12;75.16;99471.16;5055431;28;20230;-84
2021/06/27 02:32:51;;;;;;;4.70;4.30;;;;;;;17.09;75.12;99469.78;5056968;28;20645;-86
2021/06/27 02:35:18;;;;;;;4.90;4.47;;;;;;;17.11;74.97;99480.34;5055790;28;20583;-87
2021/06/27 02:37:45;;;;;;;4.37;4.07;;;;;;;17.11;75.00;99472.25;5055609;28;20755;-87
2021/06/27 02:40:12;;;;;;;4.60;4.30;;;;;;;17.11;75.18;99478.47;5038844;28;20236;-83
2021/06/27 02:42:40;;;;;;;4.67;4.27;;;;;;;17.11;75.12;99483.88;5056770;28;20222;-88
2021/06/27 02:45:09;;;;;;;4.67;4.30;;;;;;;17.01;75.37;99467.59;5055417;28;20236;-86
2021/06/27 02:47:36;;;;;;;4.80;4.40;;;;;;;16.97;75.64;99473.81;5038974;28;20308;-88
2021/06/27 02:50:06;;;;;;;4.93;4.40;;;;;;;16.99;75.42;99472.44;5055168;28;20225;-87
2021/06/27 02:52:33;;;;;;;5.17;4.50;;;;;;;16.96;75.81;99477.59;5055317;28;20592;-88
2021/06/27 02:55:00;;;;;;;4.83;4.43;;;;;;;16.89;75.71;99472.41;5055668;28;20318;-87
2021/06/27 02:57:27;;;;;;;4.60;4.30;;;;;;;16.82;76.04;99466.44;5055151;28;20540;-90
2021/06/27 02:59:53;;;;;;;5.77;4.47;;;;;;;16.84;76.17;99461.59;5055380;28;20226;-89
2021/06/27 03:02:20;;;;;;;4.70;4.37;;;;;;;16.82;76.04;99466.44;5056060;28;21964;-87
2021/06/27 03:04:47;;;;;;;5.23;4.40;;;;;;;16.87;76.52;99473.75;5055081;28;20320;-90
2021/06/27 03:07:14;;;;;;;4.77;4.47;;;;;;;16.86;76.30;99478.34;5038741;28;20229;-90
2021/06/27 03:09:41;;;;;;;5.43;5.00;;;;;;;16.82;76.32;99465.63;5055251;28;20245;-81
2021/06/27 03:12:10;;;;;;;4.80;4.40;;;;;;;16.85;76.27;99476.72;5055579;28;20283;-89
2021/06/27 03:14:36;;;;;;;5.00;4.60;;;;;;;16.79;76.08;99466.97;5038859;28;20249;-87
2021/06/27 03:17:04;;;;;;;5.10;4.60;;;;;;;16.78;76.27;99469.94;5054806;28;20230;-89
2021/06/27 03:19:30;;;;;;;5.10;4.57;;;;;;;16.85;76.38;99478.63;5038394;28;20230;-86
2021/06/27 03:21:57;;;;;;;4.97;4.57;;;;;;;16.82;76.18;99477.25;5038303;28;20237;-85
2021/06/27 03:24:24;;;;;;;5.00;4.60;;;;;;;16.88;76.22;99475.41;5054159;28;20244;-83
2021/06/27 03:26:50;;;;;;;5.30;4.90;;;;;;;16.92;75.90;99480.03;5049263;28;20245;-87
2021/06/27 03:29:17;;;;;;;4.90;4.50;;;;;;;16.92;76.01;99481.91;5050939;28;20233;-89
2021/06/27 03:31:44;;;;;;;5.13;4.73;;;;;;;16.93;75.97;99475.44;5033194;28;20663;-86
2021/06/27 03:34:11;;;;;;;4.90;4.43;;;;;;;16.95;76.07;99484.06;5017510;28;20292;-86
2021/06/27 03:36:38;;;;;;;5.20;4.77;;;;;;;16.97;75.81;99481.94;5035576;28;20229;-84
2021/06/27 03:41:45;;;;;;;5.13;4.73;;;;;;;17.10;75.27;99482.25;5017890;28;20264;-91
2021/06/27 03:44:12;;;;;;;4.97;4.57;;;;;;;17.22;74.99;99487.41;5034053;28;20253;-89
2021/06/27 03:46:39;;;;;;;4.60;4.17;;;;;;;17.24;74.80;99484.44;5034488;28;20237;-91
2021/06/27 03:49:06;;;;;;;5.20;4.80;;;;;;;17.31;74.62;99490.44;5018329;28;20649;-89
2021/06/27 03:51:33;;;;;;;4.53;4.23;;;;;;;17.39;74.26;99485.31;5017796;28;20223;-88
2021/06/27 03:53:59;;;;;;;5.00;4.60;;;;;;;17.49;73.87;99490.75;5017960;28;20300;-92
2021/06/27 03:56:26;;;;;;;4.47;4.17;;;;;;;17.51;73.96;99488.56;5033717;28;20623;-85
2021/06/27 03:58:54;;;;;;;4.53;4.13;;;;;;;17.66;73.77;99492.44;5034245;28;20230;-86
2021/06/27 04:01:21;;;;;;;4.67;4.37;;;;;;;17.78;73.26;99484.84;5033778;28;20308;-83
2021/06/27 04:03:48;;;;;;;4.60;4.23;;;;;;;18.15;72.71;99503.59;5034535;28;20233;-86
2021/06/27 04:06:15;;;;;;;5.10;4.30;;;;;;;19.08;69.71;99498.50;5034756;28;20321;-87
2021/06/27 04:08:42;;;;;;;4.80;4.40;;;;;;;19.93;66.83;99494.47;5035129;28;20305;-83
2021/06/27 04:11:09;;;;;;;3.97;3.67;;;;;;;20.63;63.72;99501.19;5017297;28;20317;-84
2021/06/27 04:13:36;;;;;;;4.17;3.87;;;;;;;21.32;61.24;99502.56;5034098;28;20317;-87
2021/06/27 04:16:04;;;;;;;3.80;3.50;;;;;;;21.90;58.40;99510.47;5017381;28;20239;-90
2021/06/27 04:18:32;;;;;;;4.20;3.90;;;;;;;22.34;57.52;99505.41;5017537;28;20227;-82
2021/06/27 04:20:59;;;;;;;4.03;3.73;;;;;;;22.55;56.77;99497.66;5001221;28;20572;-89
2021/06/27 04:23:28;;;;;;;4.10;3.70;;;;;;;22.87;55.54;99490.50;5017681;28;20314;-83
2021/06/27 04:25:55;;;;;;;3.60;3.30;;;;;;;23.14;55.11;99498.72;5034023;28;20253;-87
2021/06/27 04:28:22;;;;;;;3.70;3.40;;;;;;;23.80;52.80;99489.03;5033545;28;20813;-80
2021/06/27 04:30:50;;;;;;;3.67;3.37;;;;;;;24.63;50.91;99520.41;5017350;28;20233;-86
2021/06/27 04:33:17;;;;;;;3.53;3.30;;;;;;;25.57;48.11;99602.25;5017800;28;20243;-91
2021/06/27 04:35:43;;;;;;;3.57;3.37;;;;;;;26.70;45.34;99611.00;5017370;28;20234;-82
2021/06/27 04:38:14;;;;;;;3.33;3.13;;;;;;;27.58;43.09;99607.63;5019285;28;20229;-83
2021/06/27 04:40:40;;;;;;;3.97;3.67;;;;;;;28.16;41.65;99535.19;5038039;28;20680;-88
2021/06/27 04:43:07;;;;;;;3.72;3.50;;;;;;;27.29;43.17;99501.16;5038236;28;20513;-84
2021/06/27 04:45:37;;;;;;;3.65;3.35;;;;;;;26.52;44.98;99506.97;5021925;28;20237;-81
2021/06/27 04:48:05;;;;;;;4.05;3.70;;;;;;;25.83;46.46;99501.56;5037658;28;20249;-82
2021/06/27 04:50:32;;;;;;;3.83;3.63;;;;;;;25.24;48.09;99495.63;5037976;28;20230;-82
2021/06/27 04:53:00;;;;;;;3.92;3.63;;;;;;;24.78;49.59;99492.56;5021462;28;20660;-87
2021/06/27 04:55:27;;;;;;;3.80;3.50;;;;;;;24.55;51.00;99498.09;5038069;28;20257;-83
2021/06/27 04:57:53;;;;;;;3.58;3.35;;;;;;;24.25;51.88;99503.59;5037633;28;20226;-84
2021/06/27 05:00:20;;;;;;;3.88;3.58;;;;;;;23.87;52.50;99505.84;5020755;28;20241;-85
2021/06/27 05:02:47;;;;;;;4.00;3.70;;;;;;;23.78;53.09;99499.50;5038054;28;20733;-84
2021/06/27 05:05:14;;;;;;;3.95;3.65;;;;;;;23.58;53.80;99498.03;5037596;28;20280;-81
2021/06/27 05:07:40;;;;;;;5.18;4.05;;;;;;;;;;5037795;28;20229;-86
2021/06/27 05:10:07;;;;;;;4.20;3.83;;;;;;;23.28;55.38;99505.75;5037134;28;20230;-85
2021/06/27 05:12:34;;;;;;;4.30;4.00;;;;;;;23.10;55.99;99505.88;5037585;28;20665;-87
2021/06/27 05:15:02;;;;;;;4.30;4.00;;;;;;;23.24;56.33;99493.00;5021202;28;20230;-89
2021/06/27 05:17:28;;;;;;;4.88;4.28;;;;;;;23.48;55.63;99504.53;5038437;28;20309;-85
2021/06/27 05:19:55;;;;;;;4.70;4.30;;;;;;;23.57;55.14;99489.03;5004863;28;20229;-82
2021/06/27 05:22:22;;;;;;;4.50;4.07;;;;;;;23.84;54.28;99501.00;5020768;28;20233;-82
2021/06/27 05:24:48;;;;;;;6.10;4.70;;;;;;;23.96;53.83;99490.31;5037470;28;20249;-85
2021/06/27 05:27:15;;;;;;;4.72;4.43;;;;;;;24.38;53.60;99505.44;5037193;28;20288;-88
2021/06/27 05:29:42;;;;;;;5.10;4.70;;;;;;;24.65;52.30;99505.25;5020969;28;20233;-79
2021/06/27 05:32:09;;;;;;;5.63;5.13;;;;;;;24.91;50.91;99503.47;5020349;28;20237;-84
2021/06/27 05:34:35;;;;;;;5.72;5.25;;;;;;;24.92;51.04;99507.00;5037121;28;20222;-80
2021/06/27 05:37:02;;;;;;;6.65;6.15;;;;;;;24.87;50.82;99499.72;5020868;28;20255;-83
2021/06/27 05:39:29;;;;;;;6.95;6.45;;;;;;;25.01;50.60;99496.09;5020756;28;20238;-88
2021/06/27 05:41:56;;;;;;;7.18;6.57;;;;;;;24.68;51.46;99501.91;5020804;28;20318;-84
2021/06/27 05:44:23;;;;;;;6.72;6.22;;;;;;;24.84;51.25;99497.59;5020092;28;20237;-80
2021/06/27 05:46:50;;;;;;;6.85;6.25;;;;;;;24.98;51.04;99489.28;5020416;28;20247;-82
2021/06/27 05:49:17;;;;;;;7.35;6.70;;;;;;;24.83;51.22;99484.19;5019057;28;20237;-85
2021/06/27 05:51:43;;;;;;;7.53;6.80;;;;;;;24.53;52.07;99494.09;5036600;28;20230;-87
2021/06/27 05:54:10;;;;;;;9.15;8.35;;;;;;;24.16;52.41;99484.38;5036415;28;20246;-86
2021/06/27 05:56:37;;;;;;;9.18;8.35;;;;;;;23.77;53.71;99487.75;5020510;28;20559;-85
2021/06/27 05:59:04;;;;;;;9.13;8.32;;;;;;;24.05;52.97;99496.66;5020090;28;20313;-85
2021/06/27 06:01:31;;;;;;;8.82;7.93;;;;;;;24.18;53.43;99501.28;5020243;28;20245;-83
2021/06/27 06:03:58;;;;;;;9.43;8.63;;;;;;;24.02;53.13;99500.84;5036762;28;20229;-85
2021/06/27 06:06:25;;;;;;;8.73;7.93;;;;;;;24.13;53.21;99499.44;5019475;28;20250;-85
2021/06/27 06:08:52;;;;;;;9.32;8.52;;;;;;;24.12;52.45;99500.56;5037537;28;20257;-87
2021/06/27 06:11:19;;;;;;;9.45;8.65;;;;;;;23.62;54.23;99493.56;5020228;28;20544;-88
2021/06/27 06:13:45;;;;;;;9.05;8.35;;;;;;;23.89;54.10;99498.94;5019875;28;20234;-86
2021/06/27 06:16:12;;;;;;;9.15;8.43;;;;;;;23.90;54.24;99497.00;5037126;28;20289;-88
2021/06/27 06:18:44;;;;;;;9.48;8.50;;;;;;;23.79;53.64;99487.44;5019732;28;20317;-88
2021/06/27 06:21:15;;;;;;;8.77;7.95;;;;;;;24.00;53.90;99486.63;5020427;28;20525;-82
2021/06/27 06:23:42;;;;;;;9.32;8.55;;;;;;;24.25;53.44;99482.50;5036665;28;20316;-88
2021/06/27 06:26:09;;;;;;;8.98;8.18;;;;;;;24.30;53.09;99495.25;5035928;28;20249;-87
2021/06/27 06:28:38;;;;;;;10.75;9.73;;;;;;;23.63;53.98;99485.06;5019785;28;20229;-88
2021/06/27 06:31:07;;;;;;;9.95;8.95;;;;;;;23.95;53.89;99483.22;5020184;28;20306;-87
2021/06/27 06:33:33;;;;;;;10.15;9.07;;;;;;;24.26;53.24;99481.38;5037210;28;20226;-87
2021/06/27 06:36:00;;;;;;;10.07;9.15;;;;;;;24.57;52.70;99484.09;5019657;28;20249;-87
2021/06/27 06:38:27;;;;;;;10.15;9.18;;;;;;;24.65;52.19;99496.22;5018881;28;20256;-84
2021/06/27 06:40:54;;;;;;;10.02;9.20;;;;;;;24.66;51.77;99489.63;5019415;28;20320;-84
2021/06/27 06:43:21;;;;;;;10.95;9.80;;;;;;;24.40;52.40;99487.56;5002930;28;20227;-83
2021/06/27 06:45:48;;;;;;;10.35;9.45;;;;;;;24.60;52.36;99494.44;5019374;28;20288;-86
2021/06/27 06:48:14;;;;;;;9.18;8.35;;;;;;;24.93;51.83;99500.41;5035181;28;20312;-84
2021/06/27 06:50:41;;;;;;;8.50;7.65;;;;;;;25.36;51.23;99500.50;5035324;28;20226;-87
2021/06/27 06:53:08;;;;;;;8.70;8.00;;;;;;;25.44;50.63;99499.72;5019154;28;20582;-85
2021/06/27 06:55:35;;;;;;;9.43;8.52;;;;;;;25.55;50.69;99509.28;5035468;28;20230;-86
2021/06/27 06:58:01;;;;;;;8.77;7.97;;;;;;;25.67;49.88;99486.69;5035897;28;20255;-81
2021/06/27 07:00:28;;;;;;;9.35;8.27;;;;;;;25.68;49.38;99493.78;5034791;28;20261;-79
2021/06/27 07:02:55;;;;;;;9.50;8.63;;;;;;;25.65;49.13;99503.50;5035231;28;20224;-86
2021/06/27 07:05:21;;;;;;;9.57;8.77;;;;;;;25.21;50.17;99496.28;5035350;28;20315;-85
2021/06/27 07:07:48;;;;;;;9.43;8.52;;;;;;;25.53;49.35;99500.53;5018734;28;20221;-85
2021/06/27 07:10:15;;;;;;;9.25;8.38;;;;;;;25.53;49.77;99499.72;5034919;28;20236;-85
2021/06/27 07:12:44;;;;;;;8.82;8.07;;;;;;;25.69;49.42;99506.38;5036093;28;20249;-86
2021/06/27 07:15:11;;;;;;;9.55;8.85;;;;;;;25.92;48.52;99493.31;5018864;28;20235;-83
2021/06/27 07:17:38;;;;;;;8.93;8.13;;;;;;;26.08;48.88;99484.22;5018585;28;20231;-84
2021/06/27 07:20:07;;;;;;;9.60;8.82;;;;;;;26.12;49.10;99501.69;5034736;28;20240;-86
2021/06/27 07:22:33;;;;;;;9.55;8.57;;;;;;;25.88;49.69;99495.09;5018877;28;20530;-86
2021/06/27 07:25:00;;;;;;;11.23;10.13;;;;;;;25.58;49.63;99488.63;5034853;28;20256;-80
2021/06/27 07:27:27;;;;;;;10.68;9.88;;;;;;;25.59;49.12;99485.56;5034955;28;20330;-86
2021/06/27 07:29:54;;;;;;;10.40;9.40;;;;;;;26.04;48.66;99493.44;5034951;28;20595;-83
2021/06/27 07:32:20;;;;;;;10.50;9.70;;;;;;;26.34;48.03;99488.91;5000972;28;20232;-84
2021/06/27 07:34:47;;;;;;;9.90;9.00;;;;;;;26.57;47.47;99479.31;5032388;28;20692;-82
2021/06/27 07:37:14;;;;;;;10.35;9.27;;;;;;;26.79;46.60;99479.06;5017870;28;20693;-85
2021/06/27 07:39:40;;;;;;;9.85;8.95;;;;;;;26.86;46.22;99482.13;5017818;28;20251;-85
2021/06/27 07:42:07;;;;;;;10.27;9.30;;;;;;;26.45;46.08;99488.25;5017385;28;20638;-86
2021/06/27 07:44:34;;;;;;;9.88;8.80;;;;;;;26.66;46.46;99496.56;5034020;28;20233;-85
2021/06/27 07:47:01;;;;;;;10.00;9.30;;;;;;;26.48;46.78;99484.03;5034051;28;20245;-84
2021/06/27 07:49:29;;;;;;;9.98;9.10;;;;;;;26.48;45.86;99486.78;5033975;28;20234;-84
2021/06/27 07:51:55;;;;;;;9.18;8.48;;;;;;;26.76;45.63;99473.41;5017380;28;20242;-85
2021/06/27 07:54:23;;;;;;;11.23;10.23;;;;;;;26.59;46.24;99488.03;5033872;28;20724;-84
2021/06/27 07:56:49;;;;;;;9.13;8.25;;;;;;;26.78;45.60;99471.97;5034949;28;20233;-85
2021/06/27 07:59:16;;;;;;;9.55;8.57;;;;;;;26.94;45.35;99477.72;5017347;28;20281;-84
2021/06/27 08:01:43;;;;;;;9.52;8.82;;;;;;;26.98;44.57;99471.22;5033688;28;20260;-83
2021/06/27 08:04:10;;;;;;;9.10;8.30;;;;;;;27.27;45.11;99484.16;5033170;28;20240;-85
2021/06/27 08:06:36;;;;;;;9.20;8.50;;;;;;;27.21;43.13;99474.50;5033442;28;20244;-82
2021/06/27 08:09:04;;;;;;;8.02;7.50;;;;;;;27.32;44.00;99467.47;5017174;28;20634;-84
2021/06/27 08:11:31;;;;;;;8.35;7.35;;;;;;;27.61;42.94;99468.59;5016359;28;20234;-83
2021/06/27 08:13:57;;;;;;;9.15;8.35;;;;;;;27.65;42.84;99466.78;5017350;28;20762;-85
2021/06/27 08:16:24;;;;;;;10.10;9.23;;;;;;;27.65;42.16;99461.25;5032978;28;20298;-84
2021/06/27 08:18:51;;;;;;;10.20;9.20;;;;;;;27.39;43.30;99469.69;5000994;28;20238;-84
2021/06/27 08:21:19;;;;;;;9.27;8.57;;;;;;;27.60;42.58;99465.03;5033461;28;20222;-84
2021/06/27 08:23:46;;;;;;;8.90;8.10;;;;;;;27.78;42.92;99462.94;5016886;28;20237;-83
2021/06/27 08:26:13;;;;;;;9.10;8.30;;;;;;;27.50;43.19;99459.91;5033190;28;20326;-85
2021/06/27 08:28:46;;;;;;;8.63;7.93;;;;;;;27.55;42.80;99456.97;5018250;28;20596;-83
2021/06/27 08:31:13;;;;;;;8.85;8.15;;;;;;;27.64;42.98;99465.97;5033587;28;20252;-81
2021/06/27 08:33:39;;;;;;;8.63;7.80;;;;;;;27.60;42.77;99451.28;5017113;28;20316;-80
2021/06/27 08:36:07;;;;;;;8.23;7.53;;;;;;;27.83;42.56;99447.00;5000306;28;20316;-83
2021/06/27 08:38:33;;;;;;;9.63;8.82;;;;;;;27.63;42.53;99444.28;5033191;28;20237;-84
2021/06/27 08:41:00;;;;;;;8.38;7.70;;;;;;;28.02;42.39;99454.78;5034212;28;20309;-84
2021/06/27 08:43:32;;;;;;;8.32;7.63;;;;;;;28.28;41.72;99441.56;5016677;28;20633;-79
2021/06/27 08:46:05;;;;;;;7.97;7.28;;;;;;;28.54;41.34;99443.22;5032937;28;20649;-82
2021/06/27 08:48:36;;;;;;;9.07;7.72;;;;;;;28.43;41.28;99442.84;5017143;28;20238;-83
2021/06/27 08:51:04;;;;;;;7.90;7.30;;;;;;;28.09;42.71;99437.72;5016827;28;20238;-82
2021/06/27 08:53:39;;;;;;;7.18;6.57;;;;;;;28.17;41.03;99432.13;5032994;28;20242;-81
2021/06/27 08:56:08;;;;;;;8.02;7.35;;;;;;;27.65;41.73;99442.81;4999910;28;20705;-82
2021/06/27 08:58:42;;;;;;;7.60;7.00;;;;;;;28.06;40.64;99439.19;5016607;28;20225;-83
2021/06/27 09:01:15;;;;;;;7.78;7.18;;;;;;;27.99;41.53;99436.19;5032880;28;20236;-81
2021/06/27 09:03:44;;;;;;;6.72;6.10;;;;;;;28.23;40.21;99435.47;5016823;28;20245;-83
2021/06/27 09:06:31;;;;;;;8.80;8.13;;;;;;;28.21;40.87;99421.22;5032274;28;20230;-82
2021/06/27 09:09:17;;;;;;;6.85;6.25;;;;;;;28.33;39.74;99430.31;5016506;28;20227;-81
2021/06/27 09:12:04;;;;;;;6.32;5.80;;;;;;;28.71;38.50;99432.00;5016442;28;20645;-82
2021/06/27 09:14:40;;;;;;;6.70;6.13;;;;;;;28.92;38.80;99438.22;5032480;28;20280;-81
2021/06/27 09:17:09;;;;;;;6.72;6.13;;;;;;;28.79;38.72;99431.88;5016243;28;20257;-81
2021/06/27 09:19:52;;;;;;;6.82;6.22;;;;;;;29.09;38.95;99431.63;5032762;28;20244;-84
2021/06/27 09:22:20;;;;;;;6.85;6.22;;;;;;;29.26;38.82;99426.66;5033358;28;20260;-83
2021/06/27 09:24:47;;;;;;;6.40;5.90;;;;;;;29.38;38.05;99434.13;5019775;28;20252;-84
2021/06/27 09:27:14;;;;;;;6.80;6.30;;;;;;;29.38;37.31;99434.13;5036409;28;20241;-80
2021/06/27 09:29:41;;;;;;;6.53;6.03;;;;;;;29.35;38.10;99432.06;5037679;28;20222;-81
2021/06/27 09:32:19;;;;;;;7.10;6.60;;;;;;;28.63;37.76;99433.69;5036222;28;20276;-82
2021/06/27 09:34:47;;;;;;;6.40;5.90;;;;;;;28.99;38.07;99416.34;5020473;28;20551;-82
2021/06/27 09:37:15;;;;;;;6.38;5.88;;;;;;;29.28;36.99;99427.13;5036784;28;20236;-84
2021/06/27 09:40:02;;;;;;;6.82;6.32;;;;;;;29.56;36.76;99418.09;5036720;28;20246;-79
2021/06/27 09:42:30;;;;;;;6.80;6.20;;;;;;;29.75;35.81;99419.06;5036381;28;20293;-80
2021/06/27 09:45:03;;;;;;;5.95;5.45;;;;;;;30.09;35.38;99434.22;5036439;28;20313;-81
2021/06/27 09:47:30;;;;;;;6.38;5.88;;;;;;;30.12;35.35;99432.72;5037628;28;20316;-82
2021/06/27 09:49:57;;;;;;;6.15;5.55;;;;;;;29.06;37.16;99424.06;5036697;28;20603;-77
2021/06/27 09:52:36;;;;;;;5.93;5.43;;;;;;;28.36;36.99;99421.38;5035943;28;20238;-82
2021/06/27 09:55:11;;;;;;;5.82;5.43;;;;;;;28.47;37.19;99410.69;5036471;28;20222;-85
2021/06/27 09:57:38;;;;;;;5.78;5.28;;;;;;;28.93;36.10;99419.72;5023832;28;20226;-85
2021/06/27 10:00:30;;;;;;;5.95;5.45;;;;;;;29.28;36.17;99409.75;5038983;28;20218;-82
2021/06/27 10:02:58;;;;;;;5.60;5.10;;;;;;;29.51;35.24;99407.28;5037155;28;20232;-82
2021/06/27 10:05:25;;;;;;;5.57;5.07;;;;;;;29.86;35.03;99419.38;5008991;28;20213;-83
2021/06/27 10:07:52;;;;;;;5.43;4.95;;;;;;;30.12;33.71;99414.19;5055695;28;20321;-84
2021/06/27 10:10:19;;;;;;;5.05;4.65;;;;;;;30.47;34.26;99416.28;5037934;28;20253;-82
2021/06/27 10:12:46;;;;;;;5.13;4.72;;;;;;;30.78;32.93;99415.47;5038854;28;20329;-80
2021/06/27 10:15:15;;;;;;;5.28;4.88;;;;;;;30.66;32.10;99410.00;5055618;28;20538;-83
2021/06/27 10:17:43;;;;;;;4.70;4.40;;;;;;;30.46;33.21;99407.19;5035636;28;20222;-81
2021/06/27 10:20:11;;;;;;;6.57;5.38;;;;;;;29.55;34.18;99403.47;5053422;28;20367;-82
2021/06/27 10:22:39;;;;;;;5.05;4.65;;;;;;;29.82;33.87;99410.16;5020634;28;20222;-84
2021/06/27 10:25:09;;;;;;;5.13;4.75;;;;;;;29.81;34.74;99411.31;5019077;28;20280;-85
2021/06/27 10:27:37;;;;;;;5.30;4.80;;;;;;;29.73;34.21;99412.25;5028016;28;20234;-85
2021/06/27 10:30:07;;;;;;;5.32;4.90;;;;;;;30.02;34.16;99409.16;5056145;28;20312;-83
2021/06/27 10:32:42;;;;;;;5.00;4.57;;;;;;;30.56;32.63;99406.63;5048606;28;20643;-82
2021/06/27 10:35:11;;;;;;;4.85;4.55;;;;;;;30.92;31.60;99408.31;5050698;28;20252;-81
2021/06/27 10:37:40;;;;;;;4.72;4.43;;;;;;;31.13;31.18;99398.88;5053067;28;20233;-80
2021/06/27 10:40:08;;;;;;;4.40;4.10;;;;;;;31.24;30.65;99397.16;5053725;28;20312;-77
2021/06/27 10:42:47;;;;;;;4.95;4.43;;;;;;;31.26;30.63;99400.38;5054492;28;20644;-81
2021/06/27 10:45:17;;;;;;;4.30;3.92;;;;;;;31.40;30.97;99404.22;5054234;28;20576;-80
2021/06/27 10:47:44;;;;;;;4.95;4.65;;;;;;;31.33;31.69;99397.75;5021429;28;20615;-81
2021/06/27 10:50:12;;;;;;;5.20;4.57;;;;;;;31.30;31.38;99391.00;5020581;28;20256;-81
2021/06/27 10:52:54;;;;;;;5.30;4.90;;;;;;;30.74;31.35;99393.25;5053842;28;20233;-80
2021/06/27 10:55:30;;;;;;;4.43;4.03;;;;;;;30.92;31.36;99394.47;5054234;28;20225;-80
2021/06/27 10:58:04;;;;;;;4.25;3.95;;;;;;;31.21;30.44;99390.41;5020990;28;20244;-80
2021/06/27 11:00:53;;;;;;;4.45;4.15;;;;;;;31.42;29.86;99390.03;5053434;28;20238;-79
2021/06/27 11:03:26;;;;;;;3.65;3.38;;;;;;;31.39;29.86;99383.28;5053678;28;20237;-80
2021/06/27 11:05:58;;;;;;;4.32;4.03;;;;;;;31.38;28.73;99370.59;5053524;28;20236;-79
2021/06/27 11:08:32;;;;;;;3.60;3.30;;;;;;;31.77;28.08;99365.88;5037471;28;20239;-77
2021/06/27 11:11:30;;;;;;;4.10;3.80;;;;;;;31.48;29.53;99349.84;5053540;28;20247;-80
2021/06/27 11:14:16;;;;;;;3.47;3.28;;;;;;;30.50;30.83;99369.38;5049082;28;20221;-78
2021/06/27 11:16:59;;;;;;;5.10;3.80;;;;;;;30.81;30.22;99368.53;5053189;28;20259;-77
2021/06/27 11:19:33;;;;;;;3.70;3.40;;;;;;;31.21;29.34;99356.41;5054433;28;20317;-81
2021/06/27 11:22:16;;;;;;;3.35;3.15;;;;;;;31.06;28.57;99357.25;5054099;28;20229;-78
2021/06/27 11:24:43;;;;;;;4.07;3.47;;;;;;;30.49;30.03;99348.41;5052231;28;20247;-80
2021/06/27 11:27:34;;;;;;;3.47;3.28;;;;;;;30.98;29.98;99348.75;5036785;28;20229;-80
2021/06/27 11:30:22;;;;;;;3.80;3.60;;;;;;;31.21;29.52;99362.72;5053065;28;20312;-79
2021/06/27 11:32:49;;;;;;;3.83;3.50;;;;;;;31.69;29.06;99353.03;5053155;28;20237;-81
2021/06/27 11:35:33;;;;;;;3.88;3.58;;;;;;;31.98;28.12;99353.56;5036535;28;20234;-79
2021/06/27 11:38:01;;;;;;;3.95;3.75;;;;;;;32.38;27.86;99351.16;5036632;28;20231;-80
2021/06/27 11:41:00;;;;;;;4.07;3.78;;;;;;;32.23;28.92;99344.56;5035771;28;20287;-83
2021/06/27 11:43:54;;;;;;;4.10;3.70;;;;;;;31.84;29.11;99349.38;5029931;28;20248;-83
2021/06/27 11:46:42;;;;;;;3.50;3.30;;;;;;;32.03;29.91;99354.06;5035157;28;20252;-82